sensor_id;sensor_type;location;lat;lon;timestamp;temperature;humidity
31207;DHT22;17834;52.992;8.856;2023-06-19T00:02:20;20.70;99.90
31207;DHT22;17834;52.992;8.856;2023-06-19T00:04:46;20.60;99.90
31207;DHT22;17834;52.992;8.856;2023-06-19T00:07:11;20.60;99.90
31207;DHT22;17834;52.992;8.856;2023-06-19T00:09:37;20.70;99.90
31207;DHT22;17834;52.992;8.856;2023-06-19T00:12:02;20.60;99.90
31207;DHT22;17834;52.992;8.856;2023-06-19T00:14:29;20.60;99.90
31207;DHT22;17834;52.992;8.856;2023-06-19T00:16:55;20.60;99.90
31207;DHT22;17834;52.992;8.856;2023-06-19T00:19:21;20.60;99.90
31207;DHT22;17834;52.992;8.856;2023-06-19T00:21:47;20.60;99.90
31207;DHT22;17834;52.992;8.856;2023-06-19T00:24:12;20.60;99.90
31207;DHT22;17834;52.992;8.856;2023-06-19T00:26:38;20.50;99.90
31207;DHT22;17834;52.992;8.856;2023-06-19T00:29:03;20.50;99.90
31207;DHT22;17834;52.992;8.856;2023-06-19T00:31:29;20.50;99.90
31207;DHT22;17834;52.992;8.856;2023-06-19T00:33:55;20.40;99.90
31207;DHT22;17834;52.992;8.856;2023-06-19T00:36:20;20.40;99.90
31207;DHT22;17834;52.992;8.856;2023-06-19T00:38:47;20.30;99.90
31207;DHT22;17834;52.992;8.856;2023-06-19T00:41:13;20.40;99.90
31207;DHT22;17834;52.992;8.856;2023-06-19T00:43:40;20.40;99.90
31207;DHT22;17834;52.992;8.856;2023-06-19T00:46:05;20.30;99.90
31207;DHT22;17834;52.992;8.856;2023-06-19T00:48:32;20.30;99.90
31207;DHT22;17834;52.992;8.856;2023-06-19T00:50:59;20.30;99.90
31207;DHT22;17834;52.992;8.856;2023-06-19T00:53:25;20.30;99.90
31207;DHT22;17834;52.992;8.856;2023-06-19T00:55:53;20.30;99.90
31207;DHT22;17834;52.992;8.856;2023-06-19T00:58:22;20.30;99.90
31207;DHT22;17834;52.992;8.856;2023-06-19T01:00:48;20.30;99.90
31207;DHT22;17834;52.992;8.856;2023-06-19T01:03:15;20.30;99.90
31207;DHT22;17834;52.992;8.856;2023-06-19T01:05:40;20.30;99.90
31207;DHT22;17834;52.992;8.856;2023-06-19T01:10:49;20.30;99.90
31207;DHT22;17834;52.992;8.856;2023-06-19T01:13:36;20.30;99.90
31207;DHT22;17834;52.992;8.856;2023-06-19T01:16:03;20.40;99.90
31207;DHT22;17834;52.992;8.856;2023-06-19T01:18:30;20.40;99.90
31207;DHT22;17834;52.992;8.856;2023-06-19T01:20:57;20.30;99.90
31207;DHT22;17834;52.992;8.856;2023-06-19T01:23:22;20.30;99.90
31207;DHT22;17834;52.992;8.856;2023-06-19T01:25:48;20.30;99.90
31207;DHT22;17834;52.992;8.856;2023-06-19T01:28:13;20.30;99.90
31207;DHT22;17834;52.992;8.856;2023-06-19T01:30:41;20.20;99.90
31207;DHT22;17834;52.992;8.856;2023-06-19T01:33:17;20.20;99.90
31207;DHT22;17834;52.992;8.856;2023-06-19T01:35:45;20.20;99.90
31207;DHT22;17834;52.992;8.856;2023-06-19T01:38:12;20.20;99.90
31207;DHT22;17834;52.992;8.856;2023-06-19T01:40:39;20.30;99.90
31207;DHT22;17834;52.992;8.856;2023-06-19T01:43:07;20.30;99.90
31207;DHT22;17834;52.992;8.856;2023-06-19T01:45:33;20.30;99.90
31207;DHT22;17834;52.992;8.856;2023-06-19T01:47:59;20.30;99.90
31207;DHT22;17834;52.992;8.856;2023-06-19T01:50:25;20.30;99.90
31207;DHT22;17834;52.992;8.856;2023-06-19T01:52:51;20.20;99.90
31207;DHT22;17834;52.992;8.856;2023-06-19T01:55:17;20.20;99.90
31207;DHT22;17834;52.992;8.856;2023-06-19T01:57:42;20.20;99.90
31207;DHT22;17834;52.992;8.856;2023-06-19T02:00:08;20.10;99.90
31207;DHT22;17834;52.992;8.856;2023-06-19T02:02:36;20.10;99.90
31207;DHT22;17834;52.992;8.856;2023-06-19T02:05:01;20.10;99.90
31207;DHT22;17834;52.992;8.856;2023-06-19T02:07:26;20.10;99.90
31207;DHT22;17834;52.992;8.856;2023-06-19T02:09:52;20.10;99.90
31207;DHT22;17834;52.992;8.856;2023-06-19T02:12:17;20.00;99.90
31207;DHT22;17834;52.992;8.856;2023-06-19T02:14:43;20.00;99.90
31207;DHT22;17834;52.992;8.856;2023-06-19T02:17:09;20.00;99.90
31207;DHT22;17834;52.992;8.856;2023-06-19T02:19:34;20.00;99.90
31207;DHT22;17834;52.992;8.856;2023-06-19T02:22:00;20.00;99.90
31207;DHT22;17834;52.992;8.856;2023-06-19T02:24:25;20.00;99.90
31207;DHT22;17834;52.992;8.856;2023-06-19T02:26:51;20.00;99.90
31207;DHT22;17834;52.992;8.856;2023-06-19T02:29:16;20.00;99.90
31207;DHT22;17834;52.992;8.856;2023-06-19T02:31:42;20.10;99.90
31207;DHT22;17834;52.992;8.856;2023-06-19T02:34:08;20.10;99.90
31207;DHT22;17834;52.992;8.856;2023-06-19T02:36:34;20.10;99.90
31207;DHT22;17834;52.992;8.856;2023-06-19T02:39:01;20.10;99.90
31207;DHT22;17834;52.992;8.856;2023-06-19T02:41:26;20.10;99.90
31207;DHT22;17834;52.992;8.856;2023-06-19T02:43:52;20.20;99.90
31207;DHT22;17834;52.992;8.856;2023-06-19T02:46:17;20.20;99.90
31207;DHT22;17834;52.992;8.856;2023-06-19T02:48:43;20.20;99.90
31207;DHT22;17834;52.992;8.856;2023-06-19T02:51:08;20.20;99.90
31207;DHT22;17834;52.992;8.856;2023-06-19T02:53:34;20.20;99.90
31207;DHT22;17834;52.992;8.856;2023-06-19T02:55:59;20.20;99.90
31207;DHT22;17834;52.992;8.856;2023-06-19T02:58:25;20.20;99.90
31207;DHT22;17834;52.992;8.856;2023-06-19T03:00:52;20.30;99.90
31207;DHT22;17834;52.992;8.856;2023-06-19T03:03:17;20.30;99.90
31207;DHT22;17834;52.992;8.856;2023-06-19T03:05:43;20.20;99.90
31207;DHT22;17834;52.992;8.856;2023-06-19T03:08:09;20.20;99.90
31207;DHT22;17834;52.992;8.856;2023-06-19T03:10:34;20.30;99.90
31207;DHT22;17834;52.992;8.856;2023-06-19T03:13:00;20.30;99.90
31207;DHT22;17834;52.992;8.856;2023-06-19T03:15:25;20.20;99.90
31207;DHT22;17834;52.992;8.856;2023-06-19T03:17:52;20.30;99.90
31207;DHT22;17834;52.992;8.856;2023-06-19T03:20:18;20.30;99.90
31207;DHT22;17834;52.992;8.856;2023-06-19T03:22:44;20.30;99.90
31207;DHT22;17834;52.992;8.856;2023-06-19T03:25:09;20.30;99.90
31207;DHT22;17834;52.992;8.856;2023-06-19T03:27:35;20.30;99.90
31207;DHT22;17834;52.992;8.856;2023-06-19T03:30:02;20.30;99.90
31207;DHT22;17834;52.992;8.856;2023-06-19T03:32:33;20.40;99.90
31207;DHT22;17834;52.992;8.856;2023-06-19T03:34:59;20.40;99.90
31207;DHT22;17834;52.992;8.856;2023-06-19T03:37:25;20.40;99.90
31207;DHT22;17834;52.992;8.856;2023-06-19T03:39:50;20.40;99.90
31207;DHT22;17834;52.992;8.856;2023-06-19T03:42:15;20.40;99.90
31207;DHT22;17834;52.992;8.856;2023-06-19T03:44:41;20.50;99.90
31207;DHT22;17834;52.992;8.856;2023-06-19T03:47:07;20.50;99.90
31207;DHT22;17834;52.992;8.856;2023-06-19T03:49:32;20.50;99.90
31207;DHT22;17834;52.992;8.856;2023-06-19T03:51:58;20.40;99.90
31207;DHT22;17834;52.992;8.856;2023-06-19T03:54:23;20.40;99.90
31207;DHT22;17834;52.992;8.856;2023-06-19T03:56:48;20.30;99.90
31207;DHT22;17834;52.992;8.856;2023-06-19T03:59:14;20.30;99.90
31207;DHT22;17834;52.992;8.856;2023-06-19T04:01:39;20.20;99.90
31207;DHT22;17834;52.992;8.856;2023-06-19T04:04:05;20.20;99.90
31207;DHT22;17834;52.992;8.856;2023-06-19T04:06:31;20.00;99.90
31207;DHT22;17834;52.992;8.856;2023-06-19T04:08:56;20.00;99.90
31207;DHT22;17834;52.992;8.856;2023-06-19T04:11:22;19.90;99.90
31207;DHT22;17834;52.992;8.856;2023-06-19T04:13:48;19.80;99.90
31207;DHT22;17834;52.992;8.856;2023-06-19T04:16:13;19.80;99.90
31207;DHT22;17834;52.992;8.856;2023-06-19T04:18:39;19.80;99.90
31207;DHT22;17834;52.992;8.856;2023-06-19T04:21:04;19.70;99.90
31207;DHT22;17834;52.992;8.856;2023-06-19T04:23:30;19.70;99.90
31207;DHT22;17834;52.992;8.856;2023-06-19T04:25:55;19.70;99.90
31207;DHT22;17834;52.992;8.856;2023-06-19T04:28:20;19.70;99.90
31207;DHT22;17834;52.992;8.856;2023-06-19T04:30:46;19.70;99.90
31207;DHT22;17834;52.992;8.856;2023-06-19T04:33:12;19.80;99.90
31207;DHT22;17834;52.992;8.856;2023-06-19T04:35:37;19.80;99.90
31207;DHT22;17834;52.992;8.856;2023-06-19T04:38:06;20.00;99.90
31207;DHT22;17834;52.992;8.856;2023-06-19T04:40:31;20.00;99.90
31207;DHT22;17834;52.992;8.856;2023-06-19T04:42:57;20.20;99.90
31207;DHT22;17834;52.992;8.856;2023-06-19T04:45:23;20.30;99.90
31207;DHT22;17834;52.992;8.856;2023-06-19T04:47:48;20.50;99.90
31207;DHT22;17834;52.992;8.856;2023-06-19T04:50:14;20.80;99.90
31207;DHT22;17834;52.992;8.856;2023-06-19T04:52:40;21.00;99.90
31207;DHT22;17834;52.992;8.856;2023-06-19T04:55:07;21.30;99.90
31207;DHT22;17834;52.992;8.856;2023-06-19T04:57:36;21.40;99.90
31207;DHT22;17834;52.992;8.856;2023-06-19T05:00:05;21.50;99.90
31207;DHT22;17834;52.992;8.856;2023-06-19T05:02:35;21.60;99.90
31207;DHT22;17834;52.992;8.856;2023-06-19T05:05:01;21.60;99.90
31207;DHT22;17834;52.992;8.856;2023-06-19T05:07:31;21.60;99.90
31207;DHT22;17834;52.992;8.856;2023-06-19T05:10:00;21.60;99.90
31207;DHT22;17834;52.992;8.856;2023-06-19T05:12:26;21.60;99.90
31207;DHT22;17834;52.992;8.856;2023-06-19T05:14:51;21.70;99.90
31207;DHT22;17834;52.992;8.856;2023-06-19T05:17:17;21.80;99.90
31207;DHT22;17834;52.992;8.856;2023-06-19T05:19:42;21.80;99.90
31207;DHT22;17834;52.992;8.856;2023-06-19T05:22:08;21.80;99.90
31207;DHT22;17834;52.992;8.856;2023-06-19T05:24:33;21.90;99.90
31207;DHT22;17834;52.992;8.856;2023-06-19T05:26:59;21.90;99.90
31207;DHT22;17834;52.992;8.856;2023-06-19T05:29:24;21.90;99.90
31207;DHT22;17834;52.992;8.856;2023-06-19T05:31:50;21.70;99.90
31207;DHT22;17834;52.992;8.856;2023-06-19T05:34:16;21.70;99.90
31207;DHT22;17834;52.992;8.856;2023-06-19T05:36:41;21.70;99.90
31207;DHT22;17834;52.992;8.856;2023-06-19T05:39:06;21.70;99.90
31207;DHT22;17834;52.992;8.856;2023-06-19T05:41:32;21.80;99.90
31207;DHT22;17834;52.992;8.856;2023-06-19T05:43:58;21.80;99.90
31207;DHT22;17834;52.992;8.856;2023-06-19T05:46:23;21.90;99.90
31207;DHT22;17834;52.992;8.856;2023-06-19T05:48:49;22.00;99.90
31207;DHT22;17834;52.992;8.856;2023-06-19T05:51:14;22.10;99.90
31207;DHT22;17834;52.992;8.856;2023-06-19T05:53:40;22.20;99.90
31207;DHT22;17834;52.992;8.856;2023-06-19T05:56:06;22.30;99.90
31207;DHT22;17834;52.992;8.856;2023-06-19T05:58:32;22.60;99.90
31207;DHT22;17834;52.992;8.856;2023-06-19T06:00:57;22.80;99.90
31207;DHT22;17834;52.992;8.856;2023-06-19T06:03:24;22.90;99.90
31207;DHT22;17834;52.992;8.856;2023-06-19T06:05:51;22.80;99.90
31207;DHT22;17834;52.992;8.856;2023-06-19T06:08:16;23.00;99.90
31207;DHT22;17834;52.992;8.856;2023-06-19T06:10:42;23.10;99.90
31207;DHT22;17834;52.992;8.856;2023-06-19T06:13:07;23.40;99.90
31207;DHT22;17834;52.992;8.856;2023-06-19T06:15:33;23.70;99.90
31207;DHT22;17834;52.992;8.856;2023-06-19T06:17:58;23.90;99.90
31207;DHT22;17834;52.992;8.856;2023-06-19T06:20:24;24.80;99.70
31207;DHT22;17834;52.992;8.856;2023-06-19T06:22:49;25.90;95.40
31207;DHT22;17834;52.992;8.856;2023-06-19T06:25:15;27.30;88.50
31207;DHT22;17834;52.992;8.856;2023-06-19T06:27:41;28.70;77.80
31207;DHT22;17834;52.992;8.856;2023-06-19T06:30:07;29.90;69.80
31207;DHT22;17834;52.992;8.856;2023-06-19T06:32:33;30.70;63.20
31207;DHT22;17834;52.992;8.856;2023-06-19T06:34:59;31.00;59.90
31207;DHT22;17834;52.992;8.856;2023-06-19T06:37:24;30.80;59.20
31207;DHT22;17834;52.992;8.856;2023-06-19T06:39:50;30.30;60.00
31207;DHT22;17834;52.992;8.856;2023-06-19T06:42:16;29.60;60.60
31207;DHT22;17834;52.992;8.856;2023-06-19T06:44:42;28.80;60.70
31207;DHT22;17834;52.992;8.856;2023-06-19T06:47:07;28.20;62.50
31207;DHT22;17834;52.992;8.856;2023-06-19T06:49:33;27.50;63.80
31207;DHT22;17834;52.992;8.856;2023-06-19T06:51:58;26.90;65.70
31207;DHT22;17834;52.992;8.856;2023-06-19T06:54:24;26.70;67.50
31207;DHT22;17834;52.992;8.856;2023-06-19T06:56:50;26.50;69.80
31207;DHT22;17834;52.992;8.856;2023-06-19T06:59:18;26.40;70.20
31207;DHT22;17834;52.992;8.856;2023-06-19T07:01:43;26.30;69.50
31207;DHT22;17834;52.992;8.856;2023-06-19T07:04:08;26.30;71.30
31207;DHT22;17834;52.992;8.856;2023-06-19T07:06:34;26.30;71.20
31207;DHT22;17834;52.992;8.856;2023-06-19T07:08:59;26.20;71.40
31207;DHT22;17834;52.992;8.856;2023-06-19T07:11:25;26.20;71.80
31207;DHT22;17834;52.992;8.856;2023-06-19T07:13:50;26.20;71.90
31207;DHT22;17834;52.992;8.856;2023-06-19T07:16:16;26.40;72.40
31207;DHT22;17834;52.992;8.856;2023-06-19T07:18:41;27.30;70.90
31207;DHT22;17834;52.992;8.856;2023-06-19T07:21:11;27.90;68.80
31207;DHT22;17834;52.992;8.856;2023-06-19T07:23:39;28.70;69.00
31207;DHT22;17834;52.992;8.856;2023-06-19T07:26:05;29.50;65.60
31207;DHT22;17834;52.992;8.856;2023-06-19T07:28:30;30.00;65.00
31207;DHT22;17834;52.992;8.856;2023-06-19T07:30:56;30.90;63.90
31207;DHT22;17834;52.992;8.856;2023-06-19T07:33:21;31.30;61.80
31207;DHT22;17834;52.992;8.856;2023-06-19T07:35:47;31.40;60.90
31207;DHT22;17834;52.992;8.856;2023-06-19T07:38:12;31.20;61.70
31207;DHT22;17834;52.992;8.856;2023-06-19T07:40:38;31.10;61.80
31207;DHT22;17834;52.992;8.856;2023-06-19T07:43:04;31.10;61.40
31207;DHT22;17834;52.992;8.856;2023-06-19T07:45:30;31.10;62.10
31207;DHT22;17834;52.992;8.856;2023-06-19T07:47:56;30.90;60.60
31207;DHT22;17834;52.992;8.856;2023-06-19T07:50:22;30.50;61.50
31207;DHT22;17834;52.992;8.856;2023-06-19T07:52:48;30.10;61.80
31207;DHT22;17834;52.992;8.856;2023-06-19T07:55:13;29.60;62.80
31207;DHT22;17834;52.992;8.856;2023-06-19T07:57:39;29.20;64.80
31207;DHT22;17834;52.992;8.856;2023-06-19T08:00:05;29.00;66.60
31207;DHT22;17834;52.992;8.856;2023-06-19T08:02:36;29.00;66.20
31207;DHT22;17834;52.992;8.856;2023-06-19T08:05:02;29.00;67.30
31207;DHT22;17834;52.992;8.856;2023-06-19T08:07:28;29.10;66.50
31207;DHT22;17834;52.992;8.856;2023-06-19T08:09:53;29.10;66.80
31207;DHT22;17834;52.992;8.856;2023-06-19T08:12:19;29.20;66.40
31207;DHT22;17834;52.992;8.856;2023-06-19T08:14:45;29.30;65.90
31207;DHT22;17834;52.992;8.856;2023-06-19T08:17:10;29.20;67.00
31207;DHT22;17834;52.992;8.856;2023-06-19T08:19:35;29.10;66.00
31207;DHT22;17834;52.992;8.856;2023-06-19T08:22:01;29.20;66.90
31207;DHT22;17834;52.992;8.856;2023-06-19T08:24:27;29.30;66.40
31207;DHT22;17834;52.992;8.856;2023-06-19T08:26:54;29.30;65.10
31207;DHT22;17834;52.992;8.856;2023-06-19T08:29:19;29.60;65.80
31207;DHT22;17834;52.992;8.856;2023-06-19T08:31:45;30.00;65.50
31207;DHT22;17834;52.992;8.856;2023-06-19T08:34:10;29.90;65.20
31207;DHT22;17834;52.992;8.856;2023-06-19T08:36:36;30.00;64.80
31207;DHT22;17834;52.992;8.856;2023-06-19T08:39:02;30.20;65.10
31207;DHT22;17834;52.992;8.856;2023-06-19T08:41:28;30.20;65.40
31207;DHT22;17834;52.992;8.856;2023-06-19T08:43:54;30.30;64.60
31207;DHT22;17834;52.992;8.856;2023-06-19T08:46:20;30.50;64.40
31207;DHT22;17834;52.992;8.856;2023-06-19T08:48:46;30.20;63.60
31207;DHT22;17834;52.992;8.856;2023-06-19T08:51:12;30.20;65.10
31207;DHT22;17834;52.992;8.856;2023-06-19T08:53:49;30.10;64.70
31207;DHT22;17834;52.992;8.856;2023-06-19T08:56:17;30.10;65.10
31207;DHT22;17834;52.992;8.856;2023-06-19T08:58:43;30.00;64.70
31207;DHT22;17834;52.992;8.856;2023-06-19T09:01:08;29.70;65.50
31207;DHT22;17834;52.992;8.856;2023-06-19T09:03:34;29.50;66.10
31207;DHT22;17834;52.992;8.856;2023-06-19T09:06:06;29.10;66.80
31207;DHT22;17834;52.992;8.856;2023-06-19T09:08:32;29.00;67.50
31207;DHT22;17834;52.992;8.856;2023-06-19T09:11:03;28.60;68.20
31207;DHT22;17834;52.992;8.856;2023-06-19T09:13:30;28.40;68.20
31207;DHT22;17834;52.992;8.856;2023-06-19T09:16:03;28.30;68.80
31207;DHT22;17834;52.992;8.856;2023-06-19T09:18:31;28.40;69.70
31207;DHT22;17834;52.992;8.856;2023-06-19T09:20:57;28.70;68.50
31207;DHT22;17834;52.992;8.856;2023-06-19T09:23:23;28.80;67.90
31207;DHT22;17834;52.992;8.856;2023-06-19T09:25:51;29.20;67.80
31207;DHT22;17834;52.992;8.856;2023-06-19T09:28:21;29.40;67.70
31207;DHT22;17834;52.992;8.856;2023-06-19T09:31:01;29.60;67.40
31207;DHT22;17834;52.992;8.856;2023-06-19T09:33:28;29.60;65.70
31207;DHT22;17834;52.992;8.856;2023-06-19T09:35:55;29.50;65.70
31207;DHT22;17834;52.992;8.856;2023-06-19T09:38:25;29.50;66.20
31207;DHT22;17834;52.992;8.856;2023-06-19T09:40:52;29.40;67.00
31207;DHT22;17834;52.992;8.856;2023-06-19T09:43:38;29.40;66.20
31207;DHT22;17834;52.992;8.856;2023-06-19T09:46:05;29.40;67.10
31207;DHT22;17834;52.992;8.856;2023-06-19T09:48:33;29.50;66.90
31207;DHT22;17834;52.992;8.856;2023-06-19T09:51:17;29.70;68.60
31207;DHT22;17834;52.992;8.856;2023-06-19T09:53:44;29.90;66.60
31207;DHT22;17834;52.992;8.856;2023-06-19T09:56:12;29.80;66.40
31207;DHT22;17834;52.992;8.856;2023-06-19T09:58:39;29.90;66.20
31207;DHT22;17834;52.992;8.856;2023-06-19T10:01:05;29.90;66.70
31207;DHT22;17834;52.992;8.856;2023-06-19T10:03:32;29.60;67.10
31207;DHT22;17834;52.992;8.856;2023-06-19T10:06:00;29.30;67.10
31207;DHT22;17834;52.992;8.856;2023-06-19T10:08:30;29.20;68.00
31207;DHT22;17834;52.992;8.856;2023-06-19T10:10:55;29.00;69.10
31207;DHT22;17834;52.992;8.856;2023-06-19T10:13:34;29.10;69.80
31207;DHT22;17834;52.992;8.856;2023-06-19T10:16:00;29.30;69.40
31207;DHT22;17834;52.992;8.856;2023-06-19T10:18:26;29.60;68.40
31207;DHT22;17834;52.992;8.856;2023-06-19T10:20:56;29.60;66.50
31207;DHT22;17834;52.992;8.856;2023-06-19T10:23:23;29.60;66.70
31207;DHT22;17834;52.992;8.856;2023-06-19T10:25:56;29.70;66.60
31207;DHT22;17834;52.992;8.856;2023-06-19T10:28:24;29.90;67.30
31207;DHT22;17834;52.992;8.856;2023-06-19T10:33:20;29.90;66.10
31207;DHT22;17834;52.992;8.856;2023-06-19T10:35:45;30.00;66.20
31207;DHT22;17834;52.992;8.856;2023-06-19T10:38:15;30.00;65.40
31207;DHT22;17834;52.992;8.856;2023-06-19T10:40:40;30.10;65.70
31207;DHT22;17834;52.992;8.856;2023-06-19T10:43:06;30.10;66.30
31207;DHT22;17834;52.992;8.856;2023-06-19T10:45:32;30.20;65.90
31207;DHT22;17834;52.992;8.856;2023-06-19T10:48:01;30.20;65.00
31207;DHT22;17834;52.992;8.856;2023-06-19T10:50:34;30.00;63.90
31207;DHT22;17834;52.992;8.856;2023-06-19T10:53:00;29.90;65.80
31207;DHT22;17834;52.992;8.856;2023-06-19T10:55:26;29.80;66.20
31207;DHT22;17834;52.992;8.856;2023-06-19T10:57:52;29.80;66.80
31207;DHT22;17834;52.992;8.856;2023-06-19T11:00:23;29.90;67.20
31207;DHT22;17834;52.992;8.856;2023-06-19T11:02:49;29.70;67.00
31207;DHT22;17834;52.992;8.856;2023-06-19T11:05:14;29.90;66.20
31207;DHT22;17834;52.992;8.856;2023-06-19T11:07:40;29.80;67.80
31207;DHT22;17834;52.992;8.856;2023-06-19T11:10:06;29.70;67.80
31207;DHT22;17834;52.992;8.856;2023-06-19T11:12:32;29.90;67.50
31207;DHT22;17834;52.992;8.856;2023-06-19T11:15:02;29.80;67.20
31207;DHT22;17834;52.992;8.856;2023-06-19T11:17:27;29.60;67.80
31207;DHT22;17834;52.992;8.856;2023-06-19T11:19:56;29.40;68.20
31207;DHT22;17834;52.992;8.856;2023-06-19T11:22:22;29.40;68.50
31207;DHT22;17834;52.992;8.856;2023-06-19T11:24:47;29.40;67.20
31207;DHT22;17834;52.992;8.856;2023-06-19T11:27:20;29.30;66.30
31207;DHT22;17834;52.992;8.856;2023-06-19T11:29:55;29.60;67.50
31207;DHT22;17834;52.992;8.856;2023-06-19T11:32:21;30.00;66.90
31207;DHT22;17834;52.992;8.856;2023-06-19T11:34:50;30.10;66.90
31207;DHT22;17834;52.992;8.856;2023-06-19T11:37:18;30.20;66.20
31207;DHT22;17834;52.992;8.856;2023-06-19T11:39:44;30.10;65.00
31207;DHT22;17834;52.992;8.856;2023-06-19T11:42:10;30.10;66.00
31207;DHT22;17834;52.992;8.856;2023-06-19T11:44:36;30.10;65.70
31207;DHT22;17834;52.992;8.856;2023-06-19T11:47:18;29.80;65.50
31207;DHT22;17834;52.992;8.856;2023-06-19T11:49:47;29.80;66.30
31207;DHT22;17834;52.992;8.856;2023-06-19T11:52:13;29.80;66.10
31207;DHT22;17834;52.992;8.856;2023-06-19T11:54:38;29.70;66.10
31207;DHT22;17834;52.992;8.856;2023-06-19T11:57:04;29.80;66.80
31207;DHT22;17834;52.992;8.856;2023-06-19T11:59:30;29.80;67.40
31207;DHT22;17834;52.992;8.856;2023-06-19T12:01:55;29.90;66.00
31207;DHT22;17834;52.992;8.856;2023-06-19T12:04:23;29.90;66.40
31207;DHT22;17834;52.992;8.856;2023-06-19T12:06:49;29.80;66.80
31207;DHT22;17834;52.992;8.856;2023-06-19T12:09:14;29.50;67.30
31207;DHT22;17834;52.992;8.856;2023-06-19T12:11:40;29.20;67.30
31207;DHT22;17834;52.992;8.856;2023-06-19T12:14:05;29.00;68.70
31207;DHT22;17834;52.992;8.856;2023-06-19T12:16:31;29.00;68.20
31207;DHT22;17834;52.992;8.856;2023-06-19T12:18:56;28.90;68.20
31207;DHT22;17834;52.992;8.856;2023-06-19T12:21:22;28.80;68.50
31207;DHT22;17834;52.992;8.856;2023-06-19T12:23:48;28.70;67.60
31207;DHT22;17834;52.992;8.856;2023-06-19T12:26:13;28.60;67.60
31207;DHT22;17834;52.992;8.856;2023-06-19T12:28:39;28.90;68.60
31207;DHT22;17834;52.992;8.856;2023-06-19T12:31:04;29.20;68.40
31207;DHT22;17834;52.992;8.856;2023-06-19T12:33:30;29.30;68.00
31207;DHT22;17834;52.992;8.856;2023-06-19T12:35:58;29.50;68.20
31207;DHT22;17834;52.992;8.856;2023-06-19T12:38:24;29.50;68.20
31207;DHT22;17834;52.992;8.856;2023-06-19T12:40:49;29.40;67.80
31207;DHT22;17834;52.992;8.856;2023-06-19T12:43:15;29.10;66.80
31207;DHT22;17834;52.992;8.856;2023-06-19T12:45:40;29.00;68.00
31207;DHT22;17834;52.992;8.856;2023-06-19T12:48:07;28.90;68.90
31207;DHT22;17834;52.992;8.856;2023-06-19T12:50:32;28.60;68.80
31207;DHT22;17834;52.992;8.856;2023-06-19T12:52:58;28.50;69.00
31207;DHT22;17834;52.992;8.856;2023-06-19T12:55:23;28.40;70.00
31207;DHT22;17834;52.992;8.856;2023-06-19T12:57:49;28.20;70.20
31207;DHT22;17834;52.992;8.856;2023-06-19T13:00:14;28.00;70.80
31207;DHT22;17834;52.992;8.856;2023-06-19T13:02:40;27.90;71.40
31207;DHT22;17834;52.992;8.856;2023-06-19T13:05:08;27.80;72.60
31207;DHT22;17834;52.992;8.856;2023-06-19T13:07:34;27.80;71.70
31207;DHT22;17834;52.992;8.856;2023-06-19T13:10:00;27.70;71.50
31207;DHT22;17834;52.992;8.856;2023-06-19T13:12:25;27.70;71.90
31207;DHT22;17834;52.992;8.856;2023-06-19T13:14:51;27.70;72.20
31207;DHT22;17834;52.992;8.856;2023-06-19T13:17:16;27.90;73.10
31207;DHT22;17834;52.992;8.856;2023-06-19T13:19:42;28.20;71.70
31207;DHT22;17834;52.992;8.856;2023-06-19T13:22:08;28.40;73.00
31207;DHT22;17834;52.992;8.856;2023-06-19T13:24:33;28.90;71.60
31207;DHT22;17834;52.992;8.856;2023-06-19T13:26:59;29.00;68.70
31207;DHT22;17834;52.992;8.856;2023-06-19T13:29:24;29.10;69.60
31207;DHT22;17834;52.992;8.856;2023-06-19T13:31:50;29.40;69.60
31207;DHT22;17834;52.992;8.856;2023-06-19T13:34:15;29.60;69.30
31207;DHT22;17834;52.992;8.856;2023-06-19T13:36:41;29.30;67.90
31207;DHT22;17834;52.992;8.856;2023-06-19T13:39:07;28.90;67.90
31207;DHT22;17834;52.992;8.856;2023-06-19T13:41:32;28.70;68.30
31207;DHT22;17834;52.992;8.856;2023-06-19T13:44:01;28.60;68.10
31207;DHT22;17834;52.992;8.856;2023-06-19T13:46:27;28.60;71.00
31207;DHT22;17834;52.992;8.856;2023-06-19T13:48:53;28.50;70.60
31207;DHT22;17834;52.992;8.856;2023-06-19T13:51:19;28.40;70.60
31207;DHT22;17834;52.992;8.856;2023-06-19T13:53:45;28.30;70.90
31207;DHT22;17834;52.992;8.856;2023-06-19T13:56:11;28.20;70.50
31207;DHT22;17834;52.992;8.856;2023-06-19T13:58:38;28.00;70.30
31207;DHT22;17834;52.992;8.856;2023-06-19T14:01:04;27.90;70.20
31207;DHT22;17834;52.992;8.856;2023-06-19T14:03:29;27.60;69.00
31207;DHT22;17834;52.992;8.856;2023-06-19T14:05:55;27.90;69.20
31207;DHT22;17834;52.992;8.856;2023-06-19T14:08:20;28.20;69.50
31207;DHT22;17834;52.992;8.856;2023-06-19T14:10:46;28.30;69.10
31207;DHT22;17834;52.992;8.856;2023-06-19T14:13:12;28.40;68.70
31207;DHT22;17834;52.992;8.856;2023-06-19T14:15:37;28.50;68.00
31207;DHT22;17834;52.992;8.856;2023-06-19T14:18:03;28.60;67.80
31207;DHT22;17834;52.992;8.856;2023-06-19T14:20:28;28.70;69.60
31207;DHT22;17834;52.992;8.856;2023-06-19T14:22:54;29.00;67.70
31207;DHT22;17834;52.992;8.856;2023-06-19T14:25:19;29.10;67.30
31207;DHT22;17834;52.992;8.856;2023-06-19T14:27:45;29.30;66.70
31207;DHT22;17834;52.992;8.856;2023-06-19T14:30:11;29.40;66.40
31207;DHT22;17834;52.992;8.856;2023-06-19T14:32:37;29.40;66.20
31207;DHT22;17834;52.992;8.856;2023-06-19T14:35:03;29.60;67.00
31207;DHT22;17834;52.992;8.856;2023-06-19T14:37:29;29.70;65.50
31207;DHT22;17834;52.992;8.856;2023-06-19T14:39:54;29.70;65.90
31207;DHT22;17834;52.992;8.856;2023-06-19T14:42:20;29.60;64.50
31207;DHT22;17834;52.992;8.856;2023-06-19T14:44:45;29.50;65.40
31207;DHT22;17834;52.992;8.856;2023-06-19T14:47:11;29.30;65.30
31207;DHT22;17834;52.992;8.856;2023-06-19T14:49:36;29.20;66.50
31207;DHT22;17834;52.992;8.856;2023-06-19T14:52:04;29.10;65.40
31207;DHT22;17834;52.992;8.856;2023-06-19T14:54:29;29.10;65.70
31207;DHT22;17834;52.992;8.856;2023-06-19T14:56:55;29.20;66.80
31207;DHT22;17834;52.992;8.856;2023-06-19T14:59:20;29.00;65.90
31207;DHT22;17834;52.992;8.856;2023-06-19T15:01:46;28.80;66.80
31207;DHT22;17834;52.992;8.856;2023-06-19T15:04:11;28.70;67.10
31207;DHT22;17834;52.992;8.856;2023-06-19T15:06:37;28.60;67.30
31207;DHT22;17834;52.992;8.856;2023-06-19T15:09:02;28.50;65.90
31207;DHT22;17834;52.992;8.856;2023-06-19T15:11:28;28.30;66.70
31207;DHT22;17834;52.992;8.856;2023-06-19T15:13:53;28.20;67.40
31207;DHT22;17834;52.992;8.856;2023-06-19T15:16:19;28.10;66.90
31207;DHT22;17834;52.992;8.856;2023-06-19T15:18:47;28.00;68.10
31207;DHT22;17834;52.992;8.856;2023-06-19T15:21:13;27.80;67.10
31207;DHT22;17834;52.992;8.856;2023-06-19T15:23:39;27.60;67.30
31207;DHT22;17834;52.992;8.856;2023-06-19T15:26:05;27.60;69.20
31207;DHT22;17834;52.992;8.856;2023-06-19T15:28:33;27.80;68.50
31207;DHT22;17834;52.992;8.856;2023-06-19T15:30:58;28.10;69.10